sensor_id;sensor_type;location;lat;lon;timestamp;pressure;altitude;pressure_sealevel;temperature
76476;BMP280;65308;50.078;14.854;2023-07-31T00:02:05;99025.91;;;17.06
76476;BMP280;65308;50.078;14.854;2023-07-31T00:04:33;99018.03;;;17.02
76476;BMP280;65308;50.078;14.854;2023-07-31T00:06:59;99020.47;;;17.00
76476;BMP280;65308;50.078;14.854;2023-07-31T00:09:26;99023.69;;;16.99
76476;BMP280;65308;50.078;14.854;2023-07-31T00:11:53;99020.22;;;16.98
76476;BMP280;65308;50.078;14.854;2023-07-31T00:14:19;99034.94;;;16.92
76476;BMP280;65308;50.078;14.854;2023-07-31T00:16:46;99025.84;;;16.84
76476;BMP280;65308;50.078;14.854;2023-07-31T00:19:12;99030.72;;;16.74
76476;BMP280;65308;50.078;14.854;2023-07-31T00:21:40;99025.31;;;16.68
76476;BMP280;65308;50.078;14.854;2023-07-31T00:24:07;99026.53;;;16.73
76476;BMP280;65308;50.078;14.854;2023-07-31T00:26:34;99031.19;;;16.61
76476;BMP280;65308;50.078;14.854;2023-07-31T00:29:00;99019.91;;;16.68
76476;BMP280;65308;50.078;14.854;2023-07-31T00:31:27;99028.25;;;16.65
76476;BMP280;65308;50.078;14.854;2023-07-31T00:33:54;99018.88;;;16.60
76476;BMP280;65308;50.078;14.854;2023-07-31T00:36:20;99025.53;;;16.59
76476;BMP280;65308;50.078;14.854;2023-07-31T00:38:48;99022.59;;;16.68
76476;BMP280;65308;50.078;14.854;2023-07-31T00:41:15;99026.28;;;16.65
76476;BMP280;65308;50.078;14.854;2023-07-31T00:43:42;99021.31;;;16.58
76476;BMP280;65308;50.078;14.854;2023-07-31T00:46:08;99016.19;;;16.66
76476;BMP280;65308;50.078;14.854;2023-07-31T00:48:35;99033.88;;;16.67
76476;BMP280;65308;50.078;14.854;2023-07-31T00:51:02;99021.31;;;16.52
76476;BMP280;65308;50.078;14.854;2023-07-31T00:53:29;99018.63;;;16.58
76476;BMP280;65308;50.078;14.854;2023-07-31T00:55:57;99022.31;;;16.61
76476;BMP280;65308;50.078;14.854;2023-07-31T00:58:24;99016.63;;;16.53
76476;BMP280;65308;50.078;14.854;2023-07-31T01:00:51;99022.31;;;16.55
76476;BMP280;65308;50.078;14.854;2023-07-31T01:03:18;99030.13;;;16.47
76476;BMP280;65308;50.078;14.854;2023-07-31T01:05:50;99025.44;;;16.42
76476;BMP280;65308;50.078;14.854;2023-07-31T01:08:29;99027.38;;;16.42
76476;BMP280;65308;50.078;14.854;2023-07-31T01:11:03;99020.06;;;16.48
76476;BMP280;65308;50.078;14.854;2023-07-31T01:13:34;99023.53;;;16.54
76476;BMP280;65308;50.078;14.854;2023-07-31T01:16:00;99024.00;;;16.52
76476;BMP280;65308;50.078;14.854;2023-07-31T01:18:27;99022.75;;;16.48
76476;BMP280;65308;50.078;14.854;2023-07-31T01:20:58;99014.41;;;16.46
76476;BMP280;65308;50.078;14.854;2023-07-31T01:23:49;99008.72;;;16.38
76476;BMP280;65308;50.078;14.854;2023-07-31T01:26:21;99012.44;;;16.41
76476;BMP280;65308;50.078;14.854;2023-07-31T01:28:55;99007.75;;;16.36
76476;BMP280;65308;50.078;14.854;2023-07-31T01:31:24;98997.41;;;16.40
76476;BMP280;65308;50.078;14.854;2023-07-31T01:33:53;99004.56;;;16.43
76476;BMP280;65308;50.078;14.854;2023-07-31T01:36:21;99000.84;;;16.35
76476;BMP280;65308;50.078;14.854;2023-07-31T01:38:48;98994.97;;;16.36
76476;BMP280;65308;50.078;14.854;2023-07-31T01:41:16;98992.28;;;16.36
76476;BMP280;65308;50.078;14.854;2023-07-31T01:43:44;98991.00;;;16.37
76476;BMP280;65308;50.078;14.854;2023-07-31T01:46:11;98990.56;;;16.39
76476;BMP280;65308;50.078;14.854;2023-07-31T01:48:38;98988.31;;;16.37
76476;BMP280;65308;50.078;14.854;2023-07-31T01:51:04;98994.75;;;16.45
76476;BMP280;65308;50.078;14.854;2023-07-31T01:53:32;98992.09;;;16.51
76476;BMP280;65308;50.078;14.854;2023-07-31T01:55:59;98989.38;;;16.45
76476;BMP280;65308;50.078;14.854;2023-07-31T01:58:26;99000.16;;;16.45
76476;BMP280;65308;50.078;14.854;2023-07-31T02:00:54;98990.34;;;16.54
76476;BMP280;65308;50.078;14.854;2023-07-31T02:03:21;98990.09;;;16.51
76476;BMP280;65308;50.078;14.854;2023-07-31T02:05:48;98984.00;;;16.57
76476;BMP280;65308;50.078;14.854;2023-07-31T02:08:16;98986.91;;;16.53
76476;BMP280;65308;50.078;14.854;2023-07-31T02:10:42;98982.97;;;16.48
76476;BMP280;65308;50.078;14.854;2023-07-31T02:13:09;98984.91;;;16.42
76476;BMP280;65308;50.078;14.854;2023-07-31T02:15:36;98979.03;;;16.44
76476;BMP280;65308;50.078;14.854;2023-07-31T02:18:05;98982.97;;;16.48
76476;BMP280;65308;50.078;14.854;2023-07-31T02:20:34;98980.00;;;16.46
76476;BMP280;65308;50.078;14.854;2023-07-31T02:23:00;98981.78;;;16.49
76476;BMP280;65308;50.078;14.854;2023-07-31T02:25:27;98975.59;;;16.49
76476;BMP280;65308;50.078;14.854;2023-07-31T02:27:53;98980.47;;;16.39
76476;BMP280;65308;50.078;14.854;2023-07-31T02:30:24;98981.47;;;16.42
76476;BMP280;65308;50.078;14.854;2023-07-31T02:32:55;98980.75;;;16.47
76476;BMP280;65308;50.078;14.854;2023-07-31T02:35:24;98983.47;;;16.52
76476;BMP280;65308;50.078;14.854;2023-07-31T02:37:51;98980.31;;;16.60
76476;BMP280;65308;50.078;14.854;2023-07-31T02:40:18;98992.13;;;16.68
76476;BMP280;65308;50.078;14.854;2023-07-31T02:42:45;98990.66;;;16.72
76476;BMP280;65308;50.078;14.854;2023-07-31T02:45:11;98977.41;;;16.74
76476;BMP280;65308;50.078;14.854;2023-07-31T02:47:38;98982.31;;;16.76
76476;BMP280;65308;50.078;14.854;2023-07-31T02:50:05;98975.22;;;16.79
76476;BMP280;65308;50.078;14.854;2023-07-31T02:52:33;98980.34;;;16.76
76476;BMP280;65308;50.078;14.854;2023-07-31T02:55:00;98974.75;;;16.80
76476;BMP280;65308;50.078;14.854;2023-07-31T02:57:26;98971.50;;;16.70
76476;BMP280;65308;50.078;14.854;2023-07-31T02:59:53;98971.75;;;16.72
76476;BMP280;65308;50.078;14.854;2023-07-31T03:02:19;98976.41;;;16.77
76476;BMP280;65308;50.078;14.854;2023-07-31T03:04:46;98974.44;;;16.72
76476;BMP280;65308;50.078;14.854;2023-07-31T03:07:13;98968.81;;;16.76
76476;BMP280;65308;50.078;14.854;2023-07-31T03:09:41;98973.25;;;16.79
76476;BMP280;65308;50.078;14.854;2023-07-31T03:12:08;98968.84;;;16.87
76476;BMP280;65308;50.078;14.854;2023-07-31T03:14:35;98969.59;;;16.88
76476;BMP280;65308;50.078;14.854;2023-07-31T03:17:01;98968.09;;;16.87
76476;BMP280;65308;50.078;14.854;2023-07-31T03:19:30;98963.72;;;16.95
76476;BMP280;65308;50.078;14.854;2023-07-31T03:21:57;98957.81;;;16.91
76476;BMP280;65308;50.078;14.854;2023-07-31T03:24:23;98958.53;;;16.97
76476;BMP280;65308;50.078;14.854;2023-07-31T03:26:51;98953.63;;;16.95
76476;BMP280;65308;50.078;14.854;2023-07-31T03:29:18;98965.91;;;16.96
76476;BMP280;65308;50.078;14.854;2023-07-31T03:31:44;98969.09;;;17.00
76476;BMP280;65308;50.078;14.854;2023-07-31T03:34:11;98963.72;;;17.06
76476;BMP280;65308;50.078;14.854;2023-07-31T03:36:37;98960.50;;;17.02
76476;BMP280;65308;50.078;14.854;2023-07-31T03:39:04;98964.69;;;17.03
76476;BMP280;65308;50.078;14.854;2023-07-31T03:41:30;98966.19;;;17.10
76476;BMP280;65308;50.078;14.854;2023-07-31T03:43:58;98968.66;;;17.19
76476;BMP280;65308;50.078;14.854;2023-07-31T03:46:25;98960.00;;;17.15
76476;BMP280;65308;50.078;14.854;2023-07-31T03:48:52;98963.97;;;17.14
76476;BMP280;65308;50.078;14.854;2023-07-31T03:51:18;98966.16;;;17.15
76476;BMP280;65308;50.078;14.854;2023-07-31T03:53:45;98966.91;;;17.16
76476;BMP280;65308;50.078;14.854;2023-07-31T03:56:11;98967.16;;;17.12
76476;BMP280;65308;50.078;14.854;2023-07-31T03:58:38;98971.84;;;17.17
76476;BMP280;65308;50.078;14.854;2023-07-31T04:01:06;98966.91;;;17.21
76476;BMP280;65308;50.078;14.854;2023-07-31T04:03:32;98972.09;;;17.25
76476;BMP280;65308;50.078;14.854;2023-07-31T04:05:59;98971.59;;;17.26
76476;BMP280;65308;50.078;14.854;2023-07-31T04:08:26;98973.09;;;17.27
76476;BMP280;65308;50.078;14.854;2023-07-31T04:10:52;98979.72;;;17.32
76476;BMP280;65308;50.078;14.854;2023-07-31T04:13:19;98972.59;;;17.35
76476;BMP280;65308;50.078;14.854;2023-07-31T04:15:48;98970.88;;;17.37
76476;BMP280;65308;50.078;14.854;2023-07-31T04:18:16;98969.34;;;17.53
76476;BMP280;65308;50.078;14.854;2023-07-31T04:20:43;98971.59;;;17.54
76476;BMP280;65308;50.078;14.854;2023-07-31T04:23:09;98968.13;;;17.48
76476;BMP280;65308;50.078;14.854;2023-07-31T04:25:36;98973.31;;;17.52
76476;BMP280;65308;50.078;14.854;2023-07-31T04:28:03;98963.47;;;17.54
76476;BMP280;65308;50.078;14.854;2023-07-31T04:30:30;98968.88;;;17.60
76476;BMP280;65308;50.078;14.854;2023-07-31T04:32:56;98962.22;;;17.56
76476;BMP280;65308;50.078;14.854;2023-07-31T04:35:24;98973.56;;;17.60
76476;BMP280;65308;50.078;14.854;2023-07-31T04:37:51;98963.69;;;17.73
76476;BMP280;65308;50.078;14.854;2023-07-31T04:40:18;98965.91;;;17.81
76476;BMP280;65308;50.078;14.854;2023-07-31T04:42:44;98960.19;;;17.95
76476;BMP280;65308;50.078;14.854;2023-07-31T04:45:11;98969.22;;;18.15
76476;BMP280;65308;50.078;14.854;2023-07-31T04:47:38;98967.13;;;18.49
76476;BMP280;65308;50.078;14.854;2023-07-31T04:50:05;98965.78;;;18.67
76476;BMP280;65308;50.078;14.854;2023-07-31T04:52:34;98956.91;;;19.02
76476;BMP280;65308;50.078;14.854;2023-07-31T04:55:00;98961.44;;;19.24
76476;BMP280;65308;50.078;14.854;2023-07-31T04:57:28;98958.19;;;19.31
76476;BMP280;65308;50.078;14.854;2023-07-31T04:59:54;98956.50;;;19.52
76476;BMP280;65308;50.078;14.854;2023-07-31T05:02:21;98953.69;;;19.64
76476;BMP280;65308;50.078;14.854;2023-07-31T05:04:48;98956.59;;;19.66
76476;BMP280;65308;50.078;14.854;2023-07-31T05:07:14;98957.13;;;19.64
76476;BMP280;65308;50.078;14.854;2023-07-31T05:09:44;98959.59;;;19.62
76476;BMP280;65308;50.078;14.854;2023-07-31T05:12:10;98957.13;;;19.64
76476;BMP280;65308;50.078;14.854;2023-07-31T05:14:38;98967.31;;;19.82
76476;BMP280;65308;50.078;14.854;2023-07-31T05:17:08;98979.66;;;20.59
76476;BMP280;65308;50.078;14.854;2023-07-31T05:19:42;98969.03;;;22.12
76476;BMP280;65308;50.078;14.854;2023-07-31T05:22:09;98984.00;;;23.16
76476;BMP280;65308;50.078;14.854;2023-07-31T05:24:35;98975.72;;;24.16
76476;BMP280;65308;50.078;14.854;2023-07-31T05:27:04;98975.44;;;24.81
76476;BMP280;65308;50.078;14.854;2023-07-31T05:29:31;98977.88;;;25.48
76476;BMP280;65308;50.078;14.854;2023-07-31T05:31:57;98972.78;;;25.44
76476;BMP280;65308;50.078;14.854;2023-07-31T05:34:24;98978.63;;;25.41
76476;BMP280;65308;50.078;14.854;2023-07-31T05:36:51;98987.72;;;25.51
76476;BMP280;65308;50.078;14.854;2023-07-31T05:39:18;98974.56;;;25.49
76476;BMP280;65308;50.078;14.854;2023-07-31T05:41:45;98984.78;;;25.49
76476;BMP280;65308;50.078;14.854;2023-07-31T05:44:13;98981.31;;;25.88
76476;BMP280;65308;50.078;14.854;2023-07-31T05:46:39;98977.09;;;25.55
76476;BMP280;65308;50.078;14.854;2023-07-31T05:49:07;98984.31;;;25.27
76476;BMP280;65308;50.078;14.854;2023-07-31T05:51:33;98972.69;;;25.12
76476;BMP280;65308;50.078;14.854;2023-07-31T05:54:00;98978.72;;;24.95
76476;BMP280;65308;50.078;14.854;2023-07-31T05:56:26;98984.91;;;24.80
76476;BMP280;65308;50.078;14.854;2023-07-31T05:58:53;98980.19;;;24.81
76476;BMP280;65308;50.078;14.854;2023-07-31T06:01:21;98978.56;;;24.85
76476;BMP280;65308;50.078;14.854;2023-07-31T06:03:48;98972.66;;;24.96
76476;BMP280;65308;50.078;14.854;2023-07-31T06:06:14;98976.09;;;25.35
76476;BMP280;65308;50.078;14.854;2023-07-31T06:08:41;98968.09;;;25.62
76476;BMP280;65308;50.078;14.854;2023-07-31T06:11:07;98965.72;;;25.66
76476;BMP280;65308;50.078;14.854;2023-07-31T06:13:34;98966.69;;;25.53
76476;BMP280;65308;50.078;14.854;2023-07-31T06:16:01;98962.59;;;25.22
76476;BMP280;65308;50.078;14.854;2023-07-31T06:18:31;98965.00;;;25.02
76476;BMP280;65308;50.078;14.854;2023-07-31T06:20:58;98972.44;;;25.32
76476;BMP280;65308;50.078;14.854;2023-07-31T06:23:25;98975.78;;;26.96
76476;BMP280;65308;50.078;14.854;2023-07-31T06:25:52;98966.81;;;28.11
76476;BMP280;65308;50.078;14.854;2023-07-31T06:28:19;98964.06;;;28.67
76476;BMP280;65308;50.078;14.854;2023-07-31T06:30:45;98966.91;;;29.56
76476;BMP280;65308;50.078;14.854;2023-07-31T06:33:12;98953.69;;;30.80
76476;BMP280;65308;50.078;14.854;2023-07-31T06:35:40;98952.31;;;30.91
76476;BMP280;65308;50.078;14.854;2023-07-31T06:38:07;98945.47;;;31.04
76476;BMP280;65308;50.078;14.854;2023-07-31T06:40:34;98935.34;;;30.85
76476;BMP280;65308;50.078;14.854;2023-07-31T06:43:00;98949.84;;;30.52
76476;BMP280;65308;50.078;14.854;2023-07-31T06:45:33;98952.97;;;29.85
76476;BMP280;65308;50.078;14.854;2023-07-31T06:48:00;98950.13;;;29.23
76476;BMP280;65308;50.078;14.854;2023-07-31T06:50:27;98944.66;;;29.03
76476;BMP280;65308;50.078;14.854;2023-07-31T06:52:58;98952.75;;;28.53
76476;BMP280;65308;50.078;14.854;2023-07-31T06:55:25;98944.66;;;27.82
76476;BMP280;65308;50.078;14.854;2023-07-31T06:57:54;98945.69;;;27.32
76476;BMP280;65308;50.078;14.854;2023-07-31T07:00:22;98937.75;;;27.10
76476;BMP280;65308;50.078;14.854;2023-07-31T07:02:49;98944.41;;;26.99
76476;BMP280;65308;50.078;14.854;2023-07-31T07:05:17;98941.91;;;27.11
76476;BMP280;65308;50.078;14.854;2023-07-31T07:07:43;98933.91;;;26.70
76476;BMP280;65308;50.078;14.854;2023-07-31T07:10:11;98941.06;;;26.48
76476;BMP280;65308;50.078;14.854;2023-07-31T07:12:38;98934.69;;;26.46
76476;BMP280;65308;50.078;14.854;2023-07-31T07:15:06;98940.69;;;26.27
76476;BMP280;65308;50.078;14.854;2023-07-31T07:17:32;98938.72;;;26.20
76476;BMP280;65308;50.078;14.854;2023-07-31T07:19:59;98941.66;;;26.22
76476;BMP280;65308;50.078;14.854;2023-07-31T07:22:26;98935.59;;;25.99
76476;BMP280;65308;50.078;14.854;2023-07-31T07:24:53;98930.44;;;26.03
76476;BMP280;65308;50.078;14.854;2023-07-31T07:27:21;98939.19;;;26.09
76476;BMP280;65308;50.078;14.854;2023-07-31T07:29:50;98929.41;;;26.40
76476;BMP280;65308;50.078;14.854;2023-07-31T07:32:18;98932.13;;;27.17
76476;BMP280;65308;50.078;14.854;2023-07-31T07:34:44;98935.81;;;27.74
76476;BMP280;65308;50.078;14.854;2023-07-31T07:37:11;98933.53;;;28.16
76476;BMP280;65308;50.078;14.854;2023-07-31T07:39:38;98941.25;;;28.28
76476;BMP280;65308;50.078;14.854;2023-07-31T07:42:05;98934.59;;;28.31
76476;BMP280;65308;50.078;14.854;2023-07-31T07:44:33;98932.13;;;28.35
76476;BMP280;65308;50.078;14.854;2023-07-31T07:47:00;98933.53;;;28.16
76476;BMP280;65308;50.078;14.854;2023-07-31T07:49:26;98934.72;;;27.86
76476;BMP280;65308;50.078;14.854;2023-07-31T07:52:02;98939.75;;;27.53
76476;BMP280;65308;50.078;14.854;2023-07-31T07:54:30;98926.75;;;27.10
76476;BMP280;65308;50.078;14.854;2023-07-31T07:56:56;98926.41;;;26.54
76476;BMP280;65308;50.078;14.854;2023-07-31T07:59:24;98917.63;;;26.30
76476;BMP280;65308;50.078;14.854;2023-07-31T08:01:57;98921.09;;;26.06
76476;BMP280;65308;50.078;14.854;2023-07-31T08:04:30;98911.13;;;25.93
76476;BMP280;65308;50.078;14.854;2023-07-31T08:07:02;98926.19;;;25.77
76476;BMP280;65308;50.078;14.854;2023-07-31T08:09:29;98927.25;;;25.81
76476;BMP280;65308;50.078;14.854;2023-07-31T08:11:56;98930.28;;;25.68
76476;BMP280;65308;50.078;14.854;2023-07-31T08:14:27;98923.75;;;25.56
76476;BMP280;65308;50.078;14.854;2023-07-31T08:16:54;98926.38;;;25.39
76476;BMP280;65308;50.078;14.854;2023-07-31T08:19:22;98929.38;;;25.10
76476;BMP280;65308;50.078;14.854;2023-07-31T08:21:48;98939.84;;;24.81
76476;BMP280;65308;50.078;14.854;2023-07-31T08:24:15;98940.22;;;24.70
76476;BMP280;65308;50.078;14.854;2023-07-31T08:26:45;98949.34;;;24.57
76476;BMP280;65308;50.078;14.854;2023-07-31T08:29:11;98953.72;;;24.60
76476;BMP280;65308;50.078;14.854;2023-07-31T08:31:38;98950.44;;;24.69
76476;BMP280;65308;50.078;14.854;2023-07-31T08:34:05;98950.44;;;24.85
76476;BMP280;65308;50.078;14.854;2023-07-31T08:36:42;98944.19;;;25.15
76476;BMP280;65308;50.078;14.854;2023-07-31T08:39:08;98946.81;;;25.45
76476;BMP280;65308;50.078;14.854;2023-07-31T08:41:37;98946.72;;;25.68
76476;BMP280;65308;50.078;14.854;2023-07-31T08:44:04;98948.69;;;25.75
76476;BMP280;65308;50.078;14.854;2023-07-31T08:46:32;98942.66;;;25.77
76476;BMP280;65308;50.078;14.854;2023-07-31T08:49:00;98948.19;;;26.02
76476;BMP280;65308;50.078;14.854;2023-07-31T08:51:30;98948.13;;;26.09
76476;BMP280;65308;50.078;14.854;2023-07-31T08:53:58;98938.94;;;26.39
76476;BMP280;65308;50.078;14.854;2023-07-31T08:56:25;98943.50;;;26.62
76476;BMP280;65308;50.078;14.854;2023-07-31T08:58:52;98950.00;;;26.74
76476;BMP280;65308;50.078;14.854;2023-07-31T09:01:19;98950.81;;;26.84
76476;BMP280;65308;50.078;14.854;2023-07-31T09:03:47;98943.63;;;26.71
76476;BMP280;65308;50.078;14.854;2023-07-31T09:06:16;98948.25;;;26.61
76476;BMP280;65308;50.078;14.854;2023-07-31T09:08:45;98940.19;;;26.46
76476;BMP280;65308;50.078;14.854;2023-07-31T09:11:13;98941.25;;;26.26
76476;BMP280;65308;50.078;14.854;2023-07-31T09:13:40;98949.59;;;26.35
76476;BMP280;65308;50.078;14.854;2023-07-31T09:16:08;98942.72;;;26.69
76476;BMP280;65308;50.078;14.854;2023-07-31T09:18:53;98954.53;;;26.79
76476;BMP280;65308;50.078;14.854;2023-07-31T09:21:19;98941.94;;;26.93
76476;BMP280;65308;50.078;14.854;2023-07-31T09:23:47;98945.94;;;26.92
76476;BMP280;65308;50.078;14.854;2023-07-31T09:26:29;98948.06;;;26.84
76476;BMP280;65308;50.078;14.854;2023-07-31T09:28:55;98945.56;;;26.79
76476;BMP280;65308;50.078;14.854;2023-07-31T09:31:32;98952.19;;;26.93
76476;BMP280;65308;50.078;14.854;2023-07-31T09:33:58;98940.50;;;27.10
76476;BMP280;65308;50.078;14.854;2023-07-31T09:36:29;98938.75;;;27.31
76476;BMP280;65308;50.078;14.854;2023-07-31T09:38:55;98941.16;;;27.45
76476;BMP280;65308;50.078;14.854;2023-07-31T09:41:22;98935.22;;;27.48
76476;BMP280;65308;50.078;14.854;2023-07-31T09:43:54;98936.09;;;27.41
76476;BMP280;65308;50.078;14.854;2023-07-31T09:46:21;98929.75;;;27.48
76476;BMP280;65308;50.078;14.854;2023-07-31T09:48:47;98926.03;;;27.53
76476;BMP280;65308;50.078;14.854;2023-07-31T09:51:14;98929.06;;;27.57
76476;BMP280;65308;50.078;14.854;2023-07-31T09:53:41;98928.13;;;27.45
76476;BMP280;65308;50.078;14.854;2023-07-31T09:56:16;98923.50;;;27.48
76476;BMP280;65308;50.078;14.854;2023-07-31T09:58:43;98927.72;;;27.49
76476;BMP280;65308;50.078;14.854;2023-07-31T10:01:11;98923.16;;;27.61
76476;BMP280;65308;50.078;14.854;2023-07-31T10:03:39;98932.66;;;27.87
76476;BMP280;65308;50.078;14.854;2023-07-31T10:06:08;98925.97;;;28.07
76476;BMP280;65308;50.078;14.854;2023-07-31T10:08:36;98932.84;;;28.35
76476;BMP280;65308;50.078;14.854;2023-07-31T10:11:04;98909.84;;;28.69
76476;BMP280;65308;50.078;14.854;2023-07-31T10:13:32;98900.88;;;28.98
76476;BMP280;65308;50.078;14.854;2023-07-31T10:15:59;98889.97;;;29.09
76476;BMP280;65308;50.078;14.854;2023-07-31T10:18:28;98888.81;;;29.13
76476;BMP280;65308;50.078;14.854;2023-07-31T10:20:55;98879.75;;;29.31
76476;BMP280;65308;50.078;14.854;2023-07-31T10:23:22;98879.94;;;29.14
76476;BMP280;65308;50.078;14.854;2023-07-31T10:25:49;98875.59;;;29.11
76476;BMP280;65308;50.078;14.854;2023-07-31T10:28:17;98868.66;;;29.10
76476;BMP280;65308;50.078;14.854;2023-07-31T10:30:44;98871.53;;;29.12
76476;BMP280;65308;50.078;14.854;2023-07-31T10:33:11;98864.72;;;29.13
76476;BMP280;65308;50.078;14.854;2023-07-31T10:35:39;98863.09;;;29.29
76476;BMP280;65308;50.078;14.854;2023-07-31T10:38:12;98865.28;;;29.21
76476;BMP280;65308;50.078;14.854;2023-07-31T10:40:39;98855.66;;;29.32
76476;BMP280;65308;50.078;14.854;2023-07-31T10:43:06;98857.81;;;29.43
76476;BMP280;65308;50.078;14.854;2023-07-31T10:45:35;98847.00;;;29.57
76476;BMP280;65308;50.078;14.854;2023-07-31T10:48:03;98841.75;;;29.61
76476;BMP280;65308;50.078;14.854;2023-07-31T10:50:31;98835.31;;;29.68
76476;BMP280;65308;50.078;14.854;2023-07-31T10:53:00;98842.97;;;29.79
76476;BMP280;65308;50.078;14.854;2023-07-31T10:55:29;98831.22;;;29.79
76476;BMP280;65308;50.078;14.854;2023-07-31T10:57:58;98838.25;;;29.70
76476;BMP280;65308;50.078;14.854;2023-07-31T11:00:31;98830.63;;;29.80
76476;BMP280;65308;50.078;14.854;2023-07-31T11:03:02;98827.41;;;29.84
76476;BMP280;65308;50.078;14.854;2023-07-31T11:05:47;98821.94;;;29.74
76476;BMP280;65308;50.078;14.854;2023-07-31T11:08:17;98815.38;;;29.79
76476;BMP280;65308;50.078;14.854;2023-07-31T11:10:47;98811.50;;;29.73
76476;BMP280;65308;50.078;14.854;2023-07-31T11:13:13;98806.19;;;29.86
76476;BMP280;65308;50.078;14.854;2023-07-31T11:15:40;98805.53;;;29.76
76476;BMP280;65308;50.078;14.854;2023-07-31T11:18:07;98800.25;;;29.90
76476;BMP280;65308;50.078;14.854;2023-07-31T11:20:37;98807.63;;;29.87
76476;BMP280;65308;50.078;14.854;2023-07-31T11:23:06;98800.69;;;29.86
76476;BMP280;65308;50.078;14.854;2023-07-31T11:25:35;98804.63;;;29.83
76476;BMP280;65308;50.078;14.854;2023-07-31T11:28:05;98794.19;;;29.82
76476;BMP280;65308;50.078;14.854;2023-07-31T11:30:33;98793.06;;;29.75
76476;BMP280;65308;50.078;14.854;2023-07-31T11:33:00;98785.03;;;29.58
76476;BMP280;65308;50.078;14.854;2023-07-31T11:35:28;98789.69;;;29.55
76476;BMP280;65308;50.078;14.854;2023-07-31T11:37:59;98795.94;;;29.56
76476;BMP280;65308;50.078;14.854;2023-07-31T11:40:27;98792.66;;;29.69
76476;BMP280;65308;50.078;14.854;2023-07-31T11:42:56;98796.81;;;29.49
76476;BMP280;65308;50.078;14.854;2023-07-31T11:45:25;98796.06;;;29.58
76476;BMP280;65308;50.078;14.854;2023-07-31T11:47:54;98791.72;;;29.55
76476;BMP280;65308;50.078;14.854;2023-07-31T11:50:22;98786.44;;;29.68
76476;BMP280;65308;50.078;14.854;2023-07-31T11:52:53;98781.69;;;29.59
76476;BMP280;65308;50.078;14.854;2023-07-31T11:55:22;98796.25;;;29.50
76476;BMP280;65308;50.078;14.854;2023-07-31T11:57:49;98778.13;;;29.47
76476;BMP280;65308;50.078;14.854;2023-07-31T12:00:18;98776.72;;;29.36
76476;BMP280;65308;50.078;14.854;2023-07-31T12:02:45;98777.81;;;29.22
76476;BMP280;65308;50.078;14.854;2023-07-31T12:05:13;98775.56;;;28.99
76476;BMP280;65308;50.078;14.854;2023-07-31T12:07:44;98763.31;;;28.80
76476;BMP280;65308;50.078;14.854;2023-07-31T12:10:11;98771.25;;;28.76
76476;BMP280;65308;50.078;14.854;2023-07-31T12:12:37;98765.22;;;28.68
76476;BMP280;65308;50.078;14.854;2023-07-31T12:15:14;98765.22;;;28.68
76476;BMP280;65308;50.078;14.854;2023-07-31T12:17:47;98763.38;;;28.42
76476;BMP280;65308;50.078;14.854;2023-07-31T12:20:13;98757.28;;;28.24
76476;BMP280;65308;50.078;14.854;2023-07-31T12:22:41;98762.63;;;28.12
76476;BMP280;65308;50.078;14.854;2023-07-31T12:25:15;98764.50;;;27.90
76476;BMP280;65308;50.078;14.854;2023-07-31T12:27:44;98752.19;;;27.82
76476;BMP280;65308;50.078;14.854;2023-07-31T12:30:26;98751.44;;;27.81
76476;BMP280;65308;50.078;14.854;2023-07-31T12:32:54;98749.88;;;27.88
76476;BMP280;65308;50.078;14.854;2023-07-31T12:35:21;98747.97;;;27.71
76476;BMP280;65308;50.078;14.854;2023-07-31T12:37:48;98749.00;;;27.76
76476;BMP280;65308;50.078;14.854;2023-07-31T12:40:15;98741.94;;;27.82
76476;BMP280;65308;50.078;14.854;2023-07-31T12:42:41;98742.50;;;27.90
76476;BMP280;65308;50.078;14.854;2023-07-31T12:45:08;98736.28;;;27.90
76476;BMP280;65308;50.078;14.854;2023-07-31T12:47:35;98736.69;;;27.96
76476;BMP280;65308;50.078;14.854;2023-07-31T12:50:04;98739.63;;;27.98
76476;BMP280;65308;50.078;14.854;2023-07-31T12:52:31;98735.00;;;28.20
76476;BMP280;65308;50.078;14.854;2023-07-31T12:54:57;98735.00;;;28.39
76476;BMP280;65308;50.078;14.854;2023-07-31T12:57:24;98730.44;;;28.63
76476;BMP280;65308;50.078;14.854;2023-07-31T12:59:50;98727.66;;;28.73
76476;BMP280;65308;50.078;14.854;2023-07-31T13:02:17;98725.16;;;28.87
76476;BMP280;65308;50.078;14.854;2023-07-31T13:04:44;98724.13;;;28.92
76476;BMP280;65308;50.078;14.854;2023-07-31T13:07:12;98720.00;;;29.02
76476;BMP280;65308;50.078;14.854;2023-07-31T13:09:38;98708.03;;;28.98
76476;BMP280;65308;50.078;14.854;2023-07-31T13:12:05;98710.34;;;28.92
76476;BMP280;65308;50.078;14.854;2023-07-31T13:14:39;98711.22;;;28.94
76476;BMP280;65308;50.078;14.854;2023-07-31T13:17:06;98708.97;;;29.02
76476;BMP280;65308;50.078;14.854;2023-07-31T13:19:33;98704.84;;;28.92
76476;BMP280;65308;50.078;14.854;2023-07-31T13:22:00;98704.41;;;28.86
76476;BMP280;65308;50.078;14.854;2023-07-31T13:24:28;98706.69;;;28.58
76476;BMP280;65308;50.078;14.854;2023-07-31T13:26:55;98704.38;;;28.55
76476;BMP280;65308;50.078;14.854;2023-07-31T13:29:22;98708.13;;;28.59
76476;BMP280;65308;50.078;14.854;2023-07-31T13:31:49;98708.56;;;28.56
76476;BMP280;65308;50.078;14.854;2023-07-31T13:34:16;98702.47;;;28.57
76476;BMP280;65308;50.078;14.854;2023-07-31T13:36:43;98700.84;;;28.73
76476;BMP280;65308;50.078;14.854;2023-07-31T13:39:09;98695.63;;;28.77
76476;BMP280;65308;50.078;14.854;2023-07-31T13:41:38;98695.81;;;28.70
76476;BMP280;65308;50.078;14.854;2023-07-31T13:44:04;98693.50;;;28.57
76476;BMP280;65308;50.078;14.854;2023-07-31T13:46:31;98693.38;;;28.45
76476;BMP280;65308;50.078;14.854;2023-07-31T13:48:58;98683.56;;;28.42
76476;BMP280;65308;50.078;14.854;2023-07-31T13:51:26;98671.06;;;28.41
76476;BMP280;65308;50.078;14.854;2023-07-31T13:53:53;98677.44;;;28.43
76476;BMP280;65308;50.078;14.854;2023-07-31T13:56:20;98670.75;;;28.56
76476;BMP280;65308;50.078;14.854;2023-07-31T13:58:48;98669.72;;;28.61
76476;BMP280;65308;50.078;14.854;2023-07-31T14:01:15;98665.66;;;28.72